createdAt,value
2023-03-06T00:03:02.365Z,4.20
2023-03-06T00:07:04.124Z,4.32
2023-03-06T00:11:05.835Z,3.88
2023-03-06T00:15:08.324Z,4.53
2023-03-06T00:19:10.161Z,4.35
2023-03-06T00:23:13.991Z,4.05
2023-03-06T00:27:15.746Z,4.63
2023-03-06T00:31:17.524Z,6.35
2023-03-06T00:35:19.490Z,5.63
2023-03-06T00:39:22.129Z,3.70
2023-03-06T00:43:23.850Z,4.07
2023-03-06T00:47:25.777Z,2.75
2023-03-06T00:51:27.749Z,5.00
2023-03-06T00:55:30.938Z,3.45
2023-03-06T00:59:32.742Z,5.47
2023-03-06T01:03:34.542Z,4.10
2023-03-06T01:07:37.074Z,2.47
2023-03-06T01:11:38.881Z,3.75
2023-03-06T01:15:40.826Z,6.22
2023-03-06T01:19:42.642Z,5.72
2023-03-06T01:23:47.641Z,5.78
2023-03-06T01:27:49.506Z,5.60
2023-03-06T01:31:51.250Z,5.88
2023-03-06T01:35:53.718Z,4.20
2023-03-06T01:39:55.970Z,4.82
2023-03-06T01:43:57.830Z,4.03
2023-03-06T01:47:59.595Z,3.45
2023-03-06T01:52:10.652Z,3.65
2023-03-06T01:56:14.518Z,4.50
2023-03-06T02:00:20.397Z,3.65
2023-03-06T02:04:23.186Z,4.25
2023-03-06T02:08:26.639Z,4.80
2023-03-06T02:12:28.662Z,3.53
2023-03-06T02:16:33.331Z,2.85
2023-03-06T02:20:44.469Z,5.53
2023-03-06T02:25:01.458Z,4.35
2023-03-06T02:29:04.286Z,8.07
2023-03-06T02:33:06.307Z,9.63
2023-03-06T02:37:10.284Z,8.13
2023-03-06T02:41:12.775Z,7.75
2023-03-06T02:45:17.522Z,8.30
2023-03-06T02:49:19.283Z,9.18
2023-03-06T02:53:21.977Z,11.07
2023-03-06T02:57:23.763Z,10.55
2023-03-06T03:01:25.815Z,11.90
2023-03-06T03:05:27.731Z,9.10
2023-03-06T03:09:37.051Z,6.75
2023-03-06T03:13:39.167Z,8.43
2023-03-06T03:17:43.606Z,10.73
2023-03-06T03:21:45.480Z,8.93
2023-03-06T03:25:47.341Z,12.93
2023-03-06T03:29:50.094Z,10.50
2023-03-06T03:33:52.379Z,10.25
2023-03-06T03:37:56.926Z,11.82
2023-03-06T03:41:58.951Z,11.82
2023-03-06T03:46:00.912Z,9.65
2023-03-06T03:50:03.757Z,14.13
2023-03-06T03:54:06.840Z,12.48
2023-03-06T03:58:13.599Z,7.90
2023-03-06T04:02:15.978Z,8.55
2023-03-06T04:06:29.256Z,8.52
2023-03-06T04:10:31.827Z,8.60
2023-03-06T04:14:34.263Z,9.90
2023-03-06T04:18:36.965Z,7.20
2023-03-06T04:22:40.762Z,5.30
2023-03-06T04:26:43.241Z,4.20
2023-03-06T04:30:46.014Z,5.53
2023-03-06T04:34:48.504Z,7.90
2023-03-06T04:38:50.651Z,8.30
2023-03-06T04:42:52.855Z,6.32
2023-03-06T04:46:54.758Z,6.50
2023-03-06T04:50:56.988Z,5.50
2023-03-06T04:54:59.858Z,4.30
2023-03-06T04:59:04.267Z,6.82
2023-03-06T05:03:06.363Z,8.23
2023-03-06T05:07:08.607Z,5.30
2023-03-06T05:11:10.759Z,8.40
2023-03-06T05:15:14.351Z,7.28
2023-03-06T05:19:16.504Z,5.65
2023-03-06T05:23:18.418Z,4.05
2023-03-06T05:27:20.580Z,7.25
2023-03-06T05:31:22.905Z,5.07
2023-03-06T05:35:25.402Z,5.30
2023-03-06T05:39:28.543Z,6.10
2023-03-06T05:43:30.577Z,4.45
2023-03-06T05:47:33.289Z,5.00
2023-03-06T05:51:35.612Z,5.97
2023-03-06T05:55:37.941Z,6.78
2023-03-06T05:59:39.980Z,6.25
2023-03-06T06:03:42.831Z,4.00
2023-03-06T06:07:45.084Z,5.78
2023-03-06T06:11:47.088Z,4.93
2023-03-06T06:15:49.012Z,5.10
2023-03-06T06:19:51.227Z,3.08
2023-03-06T06:23:53.301Z,4.97
2023-03-06T06:27:56.844Z,5.25
2023-03-06T06:32:00.327Z,6.18
2023-03-06T06:36:02.403Z,3.92
2023-03-06T06:40:05.676Z,4.13
2023-03-06T06:44:10.778Z,5.82
2023-03-06T06:48:12.608Z,5.07
2023-03-06T06:52:14.417Z,6.20
2023-03-06T06:56:16.181Z,4.80
2023-03-06T07:00:18.860Z,5.68
2023-03-06T07:04:20.690Z,4.90
2023-03-06T07:08:22.540Z,6.07
2023-03-06T07:12:24.326Z,4.88
2023-03-06T07:16:26.149Z,5.85
2023-03-06T07:20:28.033Z,5.28
2023-03-06T07:24:29.810Z,4.65
2023-03-06T07:28:46.207Z,6.97
2023-03-06T07:32:55.569Z,6.85
2023-03-06T07:36:57.399Z,7.57
2023-03-06T07:40:59.160Z,9.32
2023-03-06T07:45:01.040Z,9.52
2023-03-06T07:49:02.834Z,9.07
2023-03-06T07:53:04.674Z,9.43
2023-03-06T07:57:06.494Z,8.25
2023-03-06T08:01:11.662Z,9.13
2023-03-06T08:05:15.726Z,9.82
2023-03-06T08:09:17.481Z,8.75
2023-03-06T08:13:19.238Z,7.53
2023-03-06T08:17:21.030Z,7.78
2023-03-06T08:21:27.854Z,9.18
2023-03-06T08:25:29.674Z,10.55
2023-03-06T08:29:32.348Z,11.48
2023-03-06T08:33:34.309Z,7.00
2023-03-06T08:37:36.132Z,10.25
2023-03-06T08:41:38.701Z,8.80
2023-03-06T08:45:40.485Z,6.82
2023-03-06T08:49:42.308Z,6.68
2023-03-06T08:53:44.734Z,7.72
2023-03-06T08:57:46.616Z,7.55
2023-03-06T09:01:48.385Z,9.88
2023-03-06T09:05:50.668Z,7.30
2023-03-06T09:09:56.076Z,9.73
2023-03-06T09:13:58.900Z,10.75
2023-03-06T09:18:00.710Z,9.93
2023-03-06T09:22:02.558Z,7.70
2023-03-06T09:26:04.452Z,9.15
2023-03-06T09:30:09.024Z,9.20
2023-03-06T09:34:10.798Z,10.52
2023-03-06T09:38:12.560Z,15.13
2023-03-06T09:42:18.575Z,14.57
2023-03-06T09:47:08.246Z,11.65
2023-03-06T09:51:17.202Z,12.63
2023-03-06T09:55:21.551Z,12.18
2023-03-06T09:59:25.853Z,13.85
2023-03-06T10:03:36.359Z,17.10
2023-03-06T10:07:46.859Z,12.60
2023-03-06T10:12:15.591Z,13.10
2023-03-06T10:16:23.599Z,14.90
2023-03-06T10:20:28.486Z,14.90
2023-03-06T10:24:54.239Z,18.05
2023-03-06T10:29:31.183Z,14.85
2023-03-06T10:33:55.486Z,17.85
2023-03-06T10:38:02.223Z,16.90
2023-03-06T10:42:03.975Z,19.10
2023-03-06T10:46:07.961Z,12.48
2023-03-06T10:50:25.029Z,18.85
2023-03-06T10:54:28.154Z,18.67
2023-03-06T10:58:32.527Z,16.48
2023-03-06T11:02:38.531Z,18.05
2023-03-06T11:06:40.525Z,18.67
2023-03-06T11:10:55.759Z,20.63
2023-03-06T11:15:06.980Z,16.90
2023-03-06T11:19:27.403Z,20.27
2023-03-06T11:23:37.974Z,15.88
2023-03-06T11:27:44.135Z,15.07
2023-03-06T11:32:14.734Z,14.82
2023-03-06T11:36:26.553Z,16.00
2023-03-06T11:40:37.112Z,15.95
2023-03-06T11:45:01.290Z,17.42
2023-03-06T11:49:22.875Z,14.75
2023-03-06T11:53:35.333Z,20.45
2023-03-06T11:57:50.243Z,17.95
2023-03-06T12:02:10.907Z,16.27
2023-03-06T12:06:27.741Z,18.38
2023-03-06T12:10:44.307Z,17.35
2023-03-06T12:14:52.753Z,18.33
2023-03-06T12:19:33.159Z,18.17
2023-03-06T12:23:53.269Z,18.20
2023-03-06T12:28:13.244Z,15.70
2023-03-06T12:32:29.481Z,17.63
2023-03-06T12:36:50.138Z,19.13
2023-03-06T12:41:05.685Z,16.75
2023-03-06T12:45:28.073Z,16.42
2023-03-06T12:49:34.558Z,16.38
2023-03-06T12:53:37.842Z,16.48
2023-03-06T12:57:40.474Z,16.73
2023-03-06T13:01:57.527Z,19.85
2023-03-06T13:06:30.915Z,16.05
2023-03-06T13:10:36.131Z,19.05
2023-03-06T13:14:42.335Z,16.42
2023-03-06T13:18:50.935Z,13.63
2023-03-06T13:22:52.750Z,15.77
2023-03-06T13:26:55.823Z,15.23
2023-03-06T13:30:57.797Z,16.55
2023-03-06T13:34:59.644Z,18.42
2023-03-06T13:39:02.240Z,19.02
2023-03-06T13:43:04.022Z,14.93
2023-03-06T13:47:29.378Z,16.45
2023-03-06T13:51:35.741Z,12.40
2023-03-06T13:56:08.820Z,17.17
2023-03-06T14:00:19.116Z,16.55
2023-03-06T14:04:53.564Z,16.98
2023-03-06T14:08:55.576Z,18.45
2023-03-06T14:13:04.245Z,15.60
2023-03-06T14:17:06.317Z,13.65
2023-03-06T14:21:13.463Z,15.43
2023-03-06T14:25:27.387Z,17.25
2023-03-06T14:29:30.567Z,16.88
2023-03-06T14:33:43.200Z,13.57
2023-03-06T14:37:48.448Z,14.57
2023-03-06T14:41:50.293Z,17.02
2023-03-06T14:46:06.100Z,18.15
2023-03-06T14:50:29.149Z,18.08
2023-03-06T14:54:32.383Z,15.68
2023-03-06T14:58:57.352Z,17.88
2023-03-06T15:02:59.871Z,13.70
2023-03-06T15:07:06.015Z,13.32
2023-03-06T15:11:07.821Z,17.98
2023-03-06T15:15:10.525Z,14.50
2023-03-06T15:19:20.804Z,14.73
2023-03-06T15:23:34.062Z,14.68
2023-03-06T15:27:35.890Z,14.23
2023-03-06T15:31:40.672Z,14.45
2023-03-06T15:36:02.057Z,15.07
2023-03-06T15:40:09.373Z,13.40
2023-03-06T15:48:18.446Z,17.58
2023-03-06T15:52:21.487Z,14.80
2023-03-06T15:56:32.714Z,15.45
2023-03-06T16:00:38.354Z,13.35
2023-03-06T16:04:40.231Z,13.13
2023-03-06T16:08:42.121Z,16.33
2023-03-06T16:12:48.380Z,18.17
2023-03-06T16:16:52.022Z,13.17
2023-03-06T16:20:53.833Z,16.70
2023-03-06T16:24:55.572Z,16.27
2023-03-06T16:28:57.553Z,13.63
2023-03-06T16:33:00.006Z,16.67
2023-03-06T16:37:01.836Z,15.15
2023-03-06T16:41:03.789Z,14.68
2023-03-06T16:45:05.950Z,15.63
2023-03-06T16:49:12.609Z,16.48
2023-03-06T16:53:15.412Z,14.40
2023-03-06T16:57:17.546Z,13.73
2023-03-06T17:01:20.154Z,16.30
2023-03-06T17:05:22.050Z,12.30
2023-03-06T17:09:23.846Z,15.02
2023-03-06T17:13:25.655Z,15.15
2023-03-06T17:17:27.652Z,14.52
2023-03-06T17:21:30.369Z,19.45
2023-03-06T17:25:34.477Z,21.35
2023-03-06T17:29:36.266Z,14.45
2023-03-06T17:33:38.042Z,16.42
2023-03-06T17:37:40.078Z,11.60
2023-03-06T17:41:42.106Z,7.18
2023-03-06T17:45:43.878Z,9.63
2023-03-06T17:49:45.646Z,7.07
2023-03-06T17:53:47.381Z,8.07
2023-03-06T17:57:51.983Z,8.30
2023-03-06T18:01:57.953Z,8.43
2023-03-06T18:06:04.696Z,8.05
2023-03-06T18:10:06.794Z,9.00
2023-03-06T18:14:09.614Z,6.07
2023-03-06T18:18:11.441Z,6.78
2023-03-06T18:22:13.284Z,10.20
2023-03-06T18:26:24.179Z,15.93
2023-03-06T18:30:26.464Z,16.23
2023-03-06T18:34:28.264Z,16.60
2023-03-06T18:38:30.363Z,24.20
2023-03-06T18:42:32.100Z,21.00
2023-03-06T18:46:37.116Z,11.57
2023-03-06T18:50:38.885Z,7.32
2023-03-06T18:54:40.779Z,11.15
2023-03-06T18:58:43.303Z,10.70
2023-03-06T19:02:45.101Z,13.25
2023-03-06T19:06:46.873Z,13.45
2023-03-06T19:10:50.030Z,10.95
2023-03-06T19:14:51.823Z,10.75
2023-03-06T19:18:57.546Z,10.25
2023-03-06T19:22:59.384Z,9.98
2023-03-06T19:27:01.119Z,7.07
2023-03-06T19:31:13.413Z,15.25
2023-03-06T19:35:15.328Z,10.80
2023-03-06T19:39:17.248Z,8.02
2023-03-06T19:43:19.061Z,11.38
2023-03-06T19:47:20.836Z,8.85
2023-03-06T19:51:23.096Z,9.13
2023-03-06T19:55:26.362Z,8.05
2023-03-06T19:59:28.160Z,5.65
2023-03-06T20:03:29.928Z,7.97
2023-03-06T20:07:31.689Z,6.20
2023-03-06T20:11:33.691Z,7.65
2023-03-06T20:15:36.727Z,11.85
2023-03-06T20:19:38.545Z,11.63
2023-03-06T20:23:41.056Z,10.60
2023-03-06T20:27:42.819Z,8.63
2023-03-06T20:31:44.674Z,11.52
2023-03-06T20:35:46.649Z,11.70
2023-03-06T20:39:48.624Z,8.60
2023-03-06T20:43:51.482Z,9.38
2023-03-06T20:47:56.192Z,8.98
2023-03-06T20:51:57.966Z,10.40
2023-03-06T20:55:59.740Z,7.32
2023-03-06T21:00:01.524Z,6.00
2023-03-06T21:04:04.596Z,6.72
2023-03-06T21:08:07.263Z,6.15
2023-03-06T21:12:09.044Z,6.68
2023-03-06T21:16:13.904Z,5.30
2023-03-06T21:20:15.871Z,3.35
2023-03-06T21:24:18.884Z,3.53
2023-03-06T21:28:21.460Z,3.70
2023-03-06T21:32:23.386Z,5.28
2023-03-06T21:36:26.159Z,4.53
2023-03-06T21:40:27.964Z,4.90
2023-03-06T21:44:29.721Z,6.05
2023-03-06T21:48:31.905Z,4.80
2023-03-06T21:52:33.715Z,5.97
2023-03-06T21:56:35.570Z,6.10
2023-03-06T22:00:38.389Z,6.03
2023-03-06T22:04:41.557Z,4.93
2023-03-06T22:08:43.566Z,4.13
2023-03-06T22:12:46.619Z,4.45
2023-03-06T22:16:50.462Z,4.18
2023-03-06T22:20:52.291Z,4.00
2023-03-06T22:24:54.283Z,4.05
2023-03-06T22:28:56.500Z,2.83
2023-03-06T22:32:58.489Z,3.50
2023-03-06T22:37:01.560Z,3.80
2023-03-06T22:41:04.822Z,3.20
2023-03-06T22:45:07.131Z,3.45
2023-03-06T22:49:11.498Z,4.32
2023-03-06T22:53:13.246Z,4.72
2023-03-06T22:57:15.004Z,4.53
2023-03-06T23:01:23.081Z,3.95
2023-03-06T23:05:28.454Z,3.72
2023-03-06T23:09:31.078Z,3.80
2023-03-06T23:13:51.722Z,4.30
2023-03-06T23:18:11.986Z,7.90
2023-03-06T23:22:32.291Z,6.55
2023-03-06T23:26:52.557Z,10.18
2023-03-06T23:30:54.378Z,8.32
2023-03-06T23:34:56.135Z,10.93
2023-03-06T23:38:58.192Z,6.97
2023-03-06T23:43:00.488Z,7.97
2023-03-06T23:47:02.248Z,8.65
2023-03-06T23:51:09.134Z,8.68
2023-03-06T23:55:11.131Z,7.30
2023-03-06T23:59:12.968Z,6.75
